Time;durP1;ratioP1;P1;durP2;ratioP2;P2;SDS_P1;SDS_P2;PMS_P1;PMS_P2;Temp;Humidity;BMP_temperature;BMP_pressure;BME280_temperature;BME280_humidity;BME280_pressure;Samples;Min_cycle;Max_cycle;Signal;HPM_P1;HPM_P2
2023/06/28 00:01:36;;;;;;;2.83;2.22;;;;;;;26.43;47.21;100430.94;4965015;28;20049;-78
2023/06/28 00:04:30;;;;;;;4.82;2.35;;;;;;;26.11;48.61;100429.56;4947641;28;20108;-77
2023/06/28 00:07:23;;;;;;;3.00;2.00;;;;;;;26.21;48.69;100436.94;4960778;29;20050;-77
2023/06/28 00:10:17;;;;;;;4.80;2.88;;;;;;;26.24;48.13;100435.31;4960893;29;20414;-77
2023/06/28 00:13:12;;;;;;;2.80;2.00;;;;;;;26.04;48.67;100421.34;4960664;28;20050;-77
2023/06/28 00:16:04;;;;;;;;;;;;;;;26.19;48.59;100428.22;4960736;29;20042;-77
2023/06/28 00:19:00;;;;;;;2.80;1.88;;;;;;;26.04;48.85;100428.94;4951437;29;19915;-77
2023/06/28 00:21:54;;;;;;;4.50;2.80;;;;;;;26.12;49.09;100433.94;4950703;29;20050;-77
2023/06/28 00:24:49;;;;;;;2.50;1.95;;;;;;;26.04;49.48;100440.06;4960642;29;20410;-78
2023/06/28 00:27:43;;;;;;;2.42;1.70;;;;;;;25.89;49.46;100436.78;4961634;29;20054;-77
2023/06/28 00:30:38;;;;;;;4.60;2.08;;;;;;;26.00;48.90;100431.78;4947214;29;20054;-77
2023/06/28 00:33:32;;;;;;;6.53;2.47;;;;;;;25.90;49.31;100441.13;4945998;29;20047;-77
2023/06/28 00:36:27;;;;;;;3.80;2.20;;;;;;;25.87;49.09;100434.41;4957219;29;20054;-77
2023/06/28 00:39:22;;;;;;;3.45;1.98;;;;;;;25.96;49.61;100442.19;4942738;29;20046;-77
2023/06/28 00:42:16;;;;;;;3.92;2.15;;;;;;;26.09;48.48;100437.56;4945742;28;20051;-77
2023/06/28 00:45:11;;;;;;;3.63;2.25;;;;;;;26.45;47.61;100450.84;4972871;28;20062;-77
2023/06/28 00:48:04;;;;;;;3.22;2.17;;;;;;;26.29;48.10;100460.72;4961957;28;20045;-77
2023/06/28 00:51:00;;;;;;;3.10;2.17;;;;;;;26.04;48.89;100462.38;4942120;29;20054;-77
2023/06/28 00:53:52;;;;;;;4.28;2.05;;;;;;;26.22;48.64;100455.25;4955625;28;20533;-77
2023/06/28 00:56:45;;;;;;;8.75;2.58;;;;;;;26.06;49.10;100462.75;4946320;28;20042;-77
2023/06/28 00:59:39;;;;;;;2.80;1.83;;;;;;;26.12;48.47;100459.00;4955951;29;20070;-77
2023/06/28 01:02:31;;;;;;;3.42;1.92;;;;;;;25.75;49.45;100450.97;4941300;28;20062;-77
2023/06/28 01:05:26;;;;;;;3.53;2.30;;;;;;;25.76;49.99;100456.09;4944384;29;20046;-77
2023/06/28 01:08:21;;;;;;;3.45;2.20;;;;;;;25.57;50.27;100451.25;4955330;29;20426;-77
2023/06/28 01:11:16;;;;;;;3.75;2.25;;;;;;;25.57;49.67;100450.47;4954925;29;20406;-77
2023/06/28 01:14:08;;;;;;;2.30;1.92;;;;;;;25.15;51.28;100447.13;4954776;28;20042;-76
2023/06/28 01:17:03;;;;;;;7.82;2.00;;;;;;;24.92;52.19;100453.44;4967914;28;20054;-77
2023/06/28 01:19:58;;;;;;;2.75;1.58;;;;;;;24.89;51.69;100442.38;4967049;28;20045;-77
2023/06/28 01:22:56;;;;;;;3.17;2.00;;;;;;;25.50;51.33;100454.91;4946066;28;20050;-77
2023/06/28 01:25:51;;;;;;;3.13;2.00;;;;;;;25.89;50.02;100467.41;4951510;28;20046;-77
2023/06/28 01:28:46;;;;;;;2.95;2.03;;;;;;;25.90;49.55;100466.22;4958331;28;20058;-77
2023/06/28 01:31:36;;;;;;;3.35;1.70;;;;;;;26.18;49.60;100465.66;4950157;29;20042;-77
2023/06/28 01:34:30;;;;;;;3.05;1.95;;;;;;;26.26;48.73;100483.09;4938517;29;20050;-77
2023/06/28 01:37:25;;;;;;;2.33;1.45;;;;;;;26.43;48.41;100481.94;4942075;29;20580;-77
2023/06/28 01:40:19;;;;;;;2.05;1.30;;;;;;;26.28;48.60;100484.22;4952627;28;20105;-77
2023/06/28 01:43:14;;;;;;;4.22;1.80;;;;;;;26.04;48.89;100476.31;4943516;29;20063;-77
2023/06/28 01:46:09;;;;;;;4.78;1.88;;;;;;;26.02;48.94;100476.72;4942122;29;20054;-77
2023/06/28 01:49:03;;;;;;;5.25;1.85;;;;;;;25.87;49.27;100478.97;4944625;29;20430;-76
2023/06/28 01:51:58;;;;;;;5.40;1.90;;;;;;;25.87;49.15;100470.63;4953236;28;20062;-77
2023/06/28 01:54:52;;;;;;;2.63;1.80;;;;;;;25.92;49.62;100478.50;4957695;28;20517;-78
2023/06/28 01:57:44;;;;;;;2.35;1.70;;;;;;;25.81;49.99;100471.53;4956513;29;20070;-77
2023/06/28 02:00:39;;;;;;;3.33;2.15;;;;;;;25.37;50.29;100461.50;4947849;29;20070;-78
2023/06/28 02:03:34;;;;;;;5.55;1.90;;;;;;;25.51;50.35;100461.28;4954603;28;20054;-77
2023/06/28 02:06:28;;;;;;;4.70;1.95;;;;;;;25.47;50.34;100468.91;4944759;29;20042;-77
2023/06/28 02:09:23;;;;;;;5.07;2.20;;;;;;;25.64;50.73;100458.72;4939360;29;20050;-77
2023/06/28 02:12:18;;;;;;;3.38;1.85;;;;;;;25.41;50.39;100463.03;4948217;28;20050;-77
2023/06/28 02:15:13;;;;;;;2.90;1.50;;;;;;;25.45;51.01;100457.38;4943053;29;20533;-77
2023/06/28 02:18:07;;;;;;;5.25;1.92;;;;;;;25.19;51.03;100461.00;4945167;29;20058;-77
2023/06/28 02:21:02;;;;;;;3.17;1.52;;;;;;;25.17;51.00;100464.19;4957028;29;20054;-77
2023/06/28 02:23:56;;;;;;;1.55;1.27;;;;;;;25.10;51.66;100458.72;4938006;29;20426;-77
2023/06/28 02:26:49;;;;;;;2.97;1.58;;;;;;;25.21;50.84;100464.94;4968366;28;20058;-77
2023/06/28 02:29:43;;;;;;;3.53;1.35;;;;;;;25.02;51.06;100462.84;4974686;28;20045;-77
2023/06/28 02:32:38;;;;;;;1.70;1.23;;;;;;;24.99;51.07;100467.22;4960679;29;20050;-77
2023/06/28 02:35:32;;;;;;;4.25;1.80;;;;;;;24.96;51.14;100465.31;4950453;29;20038;-78
2023/06/28 02:38:28;;;;;;;2.92;1.60;;;;;;;24.64;51.83;100457.34;4951833;29;20058;-80
2023/06/28 02:41:23;;;;;;;2.30;1.42;;;;;;;23.13;56.09;100473.44;4947086;29;20406;-81
2023/06/28 02:44:18;;;;;;;4.72;1.48;;;;;;;22.66;57.97;100466.53;4959076;28;20050;-81
2023/06/28 02:47:13;;;;;;;1.58;1.40;;;;;;;22.49;59.00;100469.00;4942030;29;20062;-80
2023/06/28 02:50:08;;;;;;;3.17;1.58;;;;;;;22.63;58.50;100468.16;4947810;29;20054;-81
2023/06/28 02:53:10;;;;;;;3.80;1.63;;;;;;;22.49;58.94;100463.47;4959741;28;20410;-81
2023/06/28 02:56:05;;;;;;;1.67;1.30;;;;;;;22.53;59.22;100469.00;4950873;29;20050;-79
2023/06/28 02:59:15;;;;;;;4.15;2.17;;;;;;;22.35;59.43;100465.50;4964211;28;20050;-80
2023/06/28 03:02:10;;;;;;;3.75;1.48;;;;;;;22.34;59.43;100466.69;4963074;28;20054;-80
2023/06/28 03:05:05;;;;;;;1.38;1.15;;;;;;;22.44;59.25;100452.81;4933201;29;20042;-80
2023/06/28 03:08:00;;;;;;;5.18;1.85;;;;;;;22.48;59.10;100456.34;4951689;28;20066;-80
2023/06/28 03:10:53;;;;;;;;;;;;;;;22.57;58.42;100465.00;4948418;29;20043;-81
2023/06/28 03:13:47;;;;;;;2.13;1.55;;;;;;;22.89;57.82;100469.63;4945847;28;19918;-79
2023/06/28 03:16:42;;;;;;;4.07;1.70;;;;;;;23.19;56.14;100461.53;4951513;28;20050;-81
2023/06/28 03:19:36;;;;;;;3.35;1.98;;;;;;;23.25;56.18;100462.69;4942565;29;20055;-80
2023/06/28 03:22:31;;;;;;;4.68;1.50;;;;;;;23.03;56.28;100464.78;4951800;28;20054;-78
2023/06/28 03:25:27;;;;;;;3.00;1.80;;;;;;;22.88;56.09;100460.53;4963220;28;20186;-78
2023/06/28 03:28:19;;;;;;;4.88;1.48;;;;;;;22.83;56.49;100460.94;4948157;29;20326;-78
2023/06/28 03:31:11;;;;;;;8.35;1.52;;;;;;;22.79;56.64;100471.28;4963711;28;20058;-78
2023/06/28 03:34:06;;;;;;;2.83;1.75;;;;;;;22.84;56.36;100464.53;4957759;28;20039;-78
2023/06/28 03:36:58;;;;;;;;;;;;;;;22.75;57.16;100470.50;4945266;29;20054;-78
2023/06/28 03:39:53;;;;;;;3.40;1.90;;;;;;;22.46;58.14;100464.25;4949370;29;20293;-78
2023/06/28 03:42:47;;;;;;;4.53;1.80;;;;;;;22.50;58.59;100469.81;4945831;29;20066;-78
2023/06/28 03:45:42;;;;;;;3.05;1.50;;;;;;;22.74;58.03;100466.16;4943415;28;20532;-78
2023/06/28 03:48:37;;;;;;;4.22;1.50;;;;;;;22.87;57.36;100464.50;4966827;28;20038;-79
2023/06/28 03:51:32;;;;;;;3.97;1.95;;;;;;;22.93;56.74;100475.94;4928479;29;20051;-79
2023/06/28 03:54:26;;;;;;;5.15;1.50;;;;;;;22.72;56.84;100476.84;4938770;29;20054;-79
2023/06/28 03:57:21;;;;;;;1.95;1.50;;;;;;;22.91;56.56;100473.56;4940407;29;20051;-77
2023/06/28 04:00:15;;;;;;;3.47;1.98;;;;;;;22.93;56.37;100471.19;4959935;29;20050;-78
2023/06/28 04:03:10;;;;;;;8.05;2.03;;;;;;;22.90;55.59;100469.25;4959482;28;20042;-78
2023/06/28 04:06:05;;;;;;;4.82;2.38;;;;;;;23.01;54.93;100469.94;4956421;28;20042;-78
2023/06/28 04:08:59;;;;;;;8.85;1.98;;;;;;;23.06;55.17;100474.28;4942850;29;20047;-77
2023/06/28 04:11:53;;;;;;;7.32;1.73;;;;;;;23.21;54.55;100478.53;4954129;29;20062;-77
2023/06/28 04:14:48;;;;;;;2.25;1.58;;;;;;;23.36;53.96;100477.28;5017366;23;20064;-81
2023/06/28 04:17:43;;;;;;;2.60;2.05;;;;;;;23.37;53.04;100466.94;4985804;28;20113;-81
2023/06/28 04:20:35;;;;;;;3.58;1.67;;;;;;;23.33;52.50;100466.97;4976808;28;20402;-84
2023/06/28 04:23:29;;;;;;;3.13;1.52;;;;;;;23.43;52.37;100459.75;4973096;28;20053;-83
2023/06/28 04:26:24;;;;;;;6.32;1.85;;;;;;;23.46;52.45;100452.63;4978859;28;20524;-84
2023/06/28 04:29:19;;;;;;;8.75;2.08;;;;;;;23.50;51.38;100454.19;4986868;28;20056;-84
2023/06/28 04:32:24;;;;;;;3.10;1.50;;;;;;;23.37;51.64;100467.72;4971356;28;20041;-84
2023/06/28 04:35:17;;;;;;;14.10;2.25;;;;;;;23.56;51.35;100466.44;4971360;28;20049;-85
2023/06/28 04:38:11;;;;;;;10.82;3.25;;;;;;;23.65;51.49;100463.97;4990686;28;20034;-82
2023/06/28 04:41:06;;;;;;;2.65;1.48;;;;;;;23.46;50.69;100478.41;4967493;28;20038;-82
2023/06/28 04:43:58;;;;;;;3.83;1.48;;;;;;;23.64;50.54;100489.38;4963933;28;20413;-81
2023/06/28 04:46:50;;;;;;;4.82;1.45;;;;;;;23.77;50.66;100490.47;4965877;28;20049;-81
2023/06/28 04:49:44;;;;;;;3.75;1.40;;;;;;;23.74;51.35;100486.50;4964200;28;20045;-82
2023/06/28 04:52:37;;;;;;;4.35;2.22;;;;;;;23.86;50.72;100490.75;4988851;28;20053;-83
2023/06/28 04:55:32;;;;;;;5.10;1.90;;;;;;;23.99;50.32;100502.94;4982459;28;20042;-77
2023/06/28 04:58:27;;;;;;;5.05;1.83;;;;;;;23.82;51.07;100504.66;4984205;28;20053;-83
2023/06/28 05:01:22;;;;;;;8.77;1.95;;;;;;;24.06;50.26;100507.63;4974052;28;20045;-82
2023/06/28 05:04:16;;;;;;;8.63;2.72;;;;;;;23.86;50.40;100505.44;4979676;28;20421;-82
2023/06/28 05:07:11;;;;;;;3.38;1.90;;;;;;;23.97;50.77;100504.56;4964578;28;20045;-79
2023/06/28 05:10:06;;;;;;;5.15;1.83;;;;;;;23.99;50.67;100493.81;5002615;28;20041;-80
2023/06/28 05:13:00;;;;;;;3.83;2.10;;;;;;;23.70;50.94;100498.84;4983102;28;20049;-79
2023/06/28 05:15:55;;;;;;;3.35;1.63;;;;;;;23.55;51.87;100498.16;4979871;28;20418;-81
2023/06/28 05:18:49;;;;;;;3.28;1.73;;;;;;;23.51;51.50;100494.63;4978980;28;20049;-81
2023/06/28 05:21:44;;;;;;;5.13;1.58;;;;;;;23.56;52.05;100490.63;4978554;28;20049;-80
2023/06/28 05:24:36;;;;;;;6.65;2.22;;;;;;;23.64;51.52;100495.72;4991538;28;20041;-80
2023/06/28 05:27:31;;;;;;;7.35;1.70;;;;;;;23.76;51.49;100491.66;4961096;28;20053;-77
2023/06/28 05:30:25;;;;;;;3.63;1.70;;;;;;;23.99;50.54;100491.03;4985559;28;20041;-79
2023/06/28 05:33:20;;;;;;;4.20;1.75;;;;;;;23.87;50.82;100489.56;4979837;28;20421;-79
2023/06/28 05:36:14;;;;;;;3.42;1.83;;;;;;;23.85;50.62;100487.19;4976038;28;20680;-82
2023/06/28 05:39:08;;;;;;;4.95;1.75;;;;;;;24.25;50.07;100491.19;4983978;28;20050;-79
2023/06/28 05:42:01;;;;;;;9.43;1.80;;;;;;;24.03;50.37;100495.34;4983665;28;20045;-81
2023/06/28 05:44:55;;;;;;;3.95;2.38;;;;;;;23.94;49.90;100488.69;4959241;28;20698;-81
2023/06/28 05:47:50;;;;;;;7.55;1.52;;;;;;;24.33;49.29;100494.66;4989600;28;20045;-79
2023/06/28 05:50:45;;;;;;;3.28;2.00;;;;;;;23.82;50.49;100493.56;4977789;28;20053;-80
2023/06/28 05:53:39;;;;;;;5.43;2.03;;;;;;;24.11;49.91;100494.09;4974847;28;20049;-79
2023/06/28 05:56:29;;;;;;;4.88;1.85;;;;;;;23.98;49.53;100495.00;4982495;28;20100;-83
2023/06/28 05:59:21;;;;;;;3.83;1.92;;;;;;;24.13;49.75;100499.22;4966742;28;20049;-80
2023/06/28 06:02:16;;;;;;;4.07;1.90;;;;;;;24.30;49.88;100501.06;4971667;28;20046;-80
2023/06/28 06:05:08;;;;;;;3.60;1.58;;;;;;;24.26;48.68;100494.75;4973940;28;20045;-78
2023/06/28 06:08:02;;;;;;;5.65;1.42;;;;;;;24.20;49.94;100491.63;4956275;28;20046;-80
2023/06/28 06:10:57;;;;;;;4.30;2.13;;;;;;;24.76;48.53;100492.16;4976326;28;20053;-79
2023/06/28 06:13:51;;;;;;;6.95;2.33;;;;;;;24.97;47.54;100491.13;4980118;28;20041;-79
2023/06/28 06:16:46;;;;;;;4.82;1.67;;;;;;;24.92;48.20;100491.59;4990676;28;20049;-79
2023/06/28 06:19:41;;;;;;;20.30;1.90;;;;;;;24.90;47.70;100505.13;4976042;28;20114;-80
2023/06/28 06:22:33;;;;;;;3.97;2.05;;;;;;;24.85;47.58;100505.56;4986308;28;20421;-79
2023/06/28 06:25:27;;;;;;;3.10;1.40;;;;;;;24.83;47.26;100499.66;4977311;28;20057;-78
2023/06/28 06:28:22;;;;;;;3.85;2.05;;;;;;;24.78;47.48;100503.69;4986078;28;20532;-78
2023/06/28 06:31:16;;;;;;;4.10;1.88;;;;;;;24.50;47.86;100515.13;4975348;28;20065;-78
2023/06/28 06:34:08;;;;;;;5.18;1.65;;;;;;;24.73;47.96;100528.38;4967637;28;20058;-79
2023/06/28 06:37:03;;;;;;;4.75;2.08;;;;;;;24.63;47.70;100527.31;4992347;28;20049;-78
2023/06/28 06:39:57;;;;;;;4.93;2.05;;;;;;;24.66;48.59;100523.69;4989039;28;20425;-81
2023/06/28 06:42:49;;;;;;;2.33;1.15;;;;;;;24.57;48.57;100515.06;4974307;28;20036;-79
2023/06/28 06:45:44;;;;;;;8.40;2.10;;;;;;;24.82;48.45;100525.88;4990696;28;20045;-78
2023/06/28 06:48:39;;;;;;;3.60;1.60;;;;;;;25.34;46.50;100529.97;4977114;28;20548;-77
2023/06/28 06:51:33;;;;;;;20.33;3.17;;;;;;;25.53;46.58;100531.28;4991286;28;20050;-80
2023/06/28 06:54:28;;;;;;;8.05;2.03;;;;;;;25.64;46.31;100522.78;4976627;28;20536;-78
2023/06/28 06:57:22;;;;;;;9.20;2.13;;;;;;;25.94;44.97;100523.47;4981355;28;20049;-79
2023/06/28 07:00:18;;;;;;;7.25;2.33;;;;;;;26.10;44.93;100528.34;4979865;28;20042;-79
2023/06/28 07:03:13;;;;;;;11.27;2.03;;;;;;;26.47;43.90;100541.22;4980336;28;20524;-78
2023/06/28 07:06:07;;;;;;;2.08;1.35;;;;;;;26.34;43.73;100537.50;4980239;28;20038;-78
2023/06/28 07:09:01;;;;;;;10.70;1.95;;;;;;;25.50;44.80;100544.03;4965045;28;20053;-79
2023/06/28 07:11:56;;;;;;;28.58;1.63;;;;;;;25.32;45.60;100535.16;4986163;28;20042;-79
2023/06/28 07:14:51;;;;;;;1.70;1.02;;;;;;;25.33;46.30;100535.94;4978977;28;20057;-80
2023/06/28 07:17:45;;;;;;;5.82;1.52;;;;;;;25.84;45.53;100541.13;4972796;28;20050;-80
2023/06/28 07:20:40;;;;;;;4.55;1.33;;;;;;;26.17;44.43;100546.94;4970483;28;20054;-79
2023/06/28 07:23:34;;;;;;;3.95;1.40;;;;;;;26.68;43.47;100553.97;4981721;28;20065;-79
2023/06/28 07:26:29;;;;;;;8.82;1.73;;;;;;;26.71;41.52;100559.50;4989066;28;20058;-79
2023/06/28 07:29:23;;;;;;;8.48;1.63;;;;;;;26.86;39.81;100557.19;5009559;28;20118;-78
2023/06/28 07:32:16;;;;;;;;;;;;;;;26.74;38.78;100557.84;5000497;28;20064;-76
2023/06/28 07:35:10;;;;;;;5.63;2.03;;;;;;;27.08;37.97;100563.13;5018267;28;19913;-78
2023/06/28 07:38:02;;;;;;;;;;;;;;;27.21;37.92;100566.84;5018055;28;20049;-78
2023/06/28 07:40:57;;;;;;;11.52;1.38;;;;;;;26.65;38.69;100571.56;4995653;28;20304;-80
2023/06/28 07:43:51;;;;;;;9.48;1.75;;;;;;;26.15;39.43;100582.81;4997090;28;20049;-78
2023/06/28 07:46:46;;;;;;;13.55;1.77;;;;;;;26.65;39.24;100593.88;4969840;28;20050;-78
2023/06/28 07:49:40;;;;;;;3.00;1.65;;;;;;;27.36;37.83;100582.06;5001076;28;20054;-79
2023/06/28 07:52:33;;;;;;;3.88;1.23;;;;;;;27.51;37.21;100588.94;4976819;28;20037;-80
2023/06/28 07:55:27;;;;;;;15.95;2.13;;;;;;;27.21;37.49;100592.78;4997062;28;20069;-80
2023/06/28 07:58:22;;;;;;;9.85;1.40;;;;;;;28.80;35.78;100598.50;5007653;28;20034;-78
2023/06/28 08:01:17;;;;;;;12.32;2.03;;;;;;;28.42;35.91;100593.50;4989311;28;20045;-78
2023/06/28 08:04:11;;;;;;;6.47;1.17;;;;;;;26.84;38.24;100593.09;4989608;28;20030;-79
2023/06/28 08:07:05;;;;;;;2.45;1.52;;;;;;;27.41;38.05;100586.34;4996236;28;20505;-79
2023/06/28 08:10:00;;;;;;;39.47;3.72;;;;;;;27.16;38.50;100587.69;4996355;28;20057;-80
2023/06/28 08:12:55;;;;;;;5.18;1.85;;;;;;;28.74;36.43;100595.47;4998095;28;20050;-80
2023/06/28 08:15:47;;;;;;;;;;;;;;;29.61;33.04;100584.09;4997362;28;20115;-78
2023/06/28 08:18:39;;;;;;;11.77;2.13;;;;;;;30.66;31.85;100583.78;4995562;28;19913;-80
2023/06/28 08:21:33;;;;;;;5.97;1.73;;;;;;;31.74;31.00;100586.47;4983658;28;20039;-79
2023/06/28 08:24:25;;;;;;;;;;;;;;;30.99;31.65;100594.16;4996387;28;20283;-78
2023/06/28 08:27:20;;;;;;;3.55;1.60;;;;;;;31.65;30.64;100588.44;4995900;28;19917;-79
2023/06/28 08:30:12;;;;;;;;;;;;;;;32.16;30.12;100589.53;4992963;28;20057;-80
2023/06/28 08:33:06;;;;;;;6.50;1.58;;;;;;;30.71;32.38;100592.41;4988991;28;19913;-83
2023/06/28 08:36:01;;;;;;;3.47;1.88;;;;;;;29.25;35.49;100585.16;4981325;28;20519;-83
2023/06/28 08:38:53;;;;;;;4.18;1.65;;;;;;;29.21;35.69;100592.06;4976462;28;20429;-82
2023/06/28 08:41:50;;;;;;;13.85;2.58;;;;;;;29.50;36.44;100589.25;4989572;28;20812;-79
2023/06/28 08:44:45;;;;;;;13.27;2.42;;;;;;;31.80;31.55;100597.88;4997734;28;20049;-79
2023/06/28 08:47:39;;;;;;;34.50;3.53;;;;;;;30.07;34.75;100593.81;4992747;28;20046;-79
2023/06/28 08:50:33;;;;;;;13.40;2.75;;;;;;;28.39;37.20;100602.75;4994189;28;20050;-77
2023/06/28 08:53:29;;;;;;;12.85;2.65;;;;;;;27.70;38.51;100601.25;4998680;28;20054;-78
2023/06/28 08:56:24;;;;;;;7.70;1.67;;;;;;;26.75;40.35;100590.09;4979795;28;20045;-79
2023/06/28 08:59:18;;;;;;;8.48;2.35;;;;;;;27.89;38.43;100599.59;4978432;28;20422;-78
2023/06/28 09:02:17;;;;;;;18.83;2.85;;;;;;;27.41;39.11;100594.72;4970155;28;20045;-81
2023/06/28 09:05:11;;;;;;;5.38;2.15;;;;;;;28.43;37.79;100602.69;4980756;28;20046;-79
2023/06/28 09:08:07;;;;;;;5.43;2.30;;;;;;;29.75;34.93;100609.66;4983953;28;20045;-79
2023/06/28 09:11:03;;;;;;;5.78;2.10;;;;;;;31.05;32.58;100613.25;4968543;28;20045;-77
2023/06/28 09:13:58;;;;;;;8.48;2.30;;;;;;;32.07;31.75;100614.84;4978989;28;20045;-80
2023/06/28 09:16:50;;;;;;;16.13;3.40;;;;;;;34.92;27.82;100622.75;4982873;28;20050;-80
2023/06/28 09:19:44;;;;;;;9.35;2.20;;;;;;;35.13;26.84;100610.28;4980760;28;20096;-80
2023/06/28 09:22:39;;;;;;;5.95;2.20;;;;;;;37.18;24.02;100620.88;4964525;28;20069;-79
2023/06/28 09:25:33;;;;;;;4.22;1.90;;;;;;;33.55;28.17;100609.47;4966318;28;20038;-77
2023/06/28 09:28:37;;;;;;;7.53;1.70;;;;;;;32.89;28.01;100617.75;4993277;28;20074;-77
2023/06/28 09:31:34;;;;;;;6.18;2.67;;;;;;;32.36;29.11;100608.00;4980285;28;20045;-82
2023/06/28 09:34:28;;;;;;;6.07;1.90;;;;;;;31.74;29.82;100611.00;4980631;28;20126;-82
2023/06/28 09:37:20;;;;;;;;;;;;;;;34.01;27.07;100612.88;4993200;28;20061;-78
2023/06/28 09:40:19;;;;;;;13.90;1.73;;;;;;;32.89;28.14;100614.94;4978406;28;19913;-77
2023/06/28 09:43:18;;;;;;;6.75;2.33;;;;;;;33.03;28.26;100614.28;4992580;28;20536;-76
2023/06/28 09:46:21;;;;;;;11.30;2.17;;;;;;;31.30;30.13;100605.44;4992286;28;20041;-80
2023/06/28 09:49:23;;;;;;;64.68;5.30;;;;;;;32.86;27.84;100613.06;4979548;28;20057;-77
2023/06/28 09:52:18;;;;;;;19.88;2.30;;;;;;;34.13;25.14;100616.75;4978204;28;20043;-77
2023/06/28 09:55:10;;;;;;;20.33;3.72;;;;;;;33.25;26.24;100607.69;4992293;28;20057;-79
2023/06/28 09:58:05;;;;;;;10.25;1.90;;;;;;;35.29;24.49;100614.69;4964634;28;20065;-79
2023/06/28 10:00:59;;;;;;;25.02;3.42;;;;;;;35.22;24.68;100610.22;4981136;28;20405;-79
2023/06/28 10:03:54;;;;;;;28.42;3.40;;;;;;;32.74;27.67;100619.66;4978971;28;20042;-78
2023/06/28 10:06:47;;;;;;;204.65;14.07;;;;;;;33.19;27.12;100620.84;4992328;28;20046;-77
2023/06/28 10:09:43;;;;;;;9.15;2.25;;;;;;;33.43;27.40;100613.25;4977800;28;20424;-78
2023/06/28 10:12:39;;;;;;;5.75;2.03;;;;;;;32.65;28.54;100622.47;4983375;28;20057;-79
2023/06/28 10:15:36;;;;;;;9.25;1.80;;;;;;;32.11;29.33;100618.31;5013819;23;20460;-82
2023/06/28 10:18:28;;;;;;;183.48;16.42;;;;;;;32.10;29.58;100607.50;5001930;28;20045;-80
2023/06/28 10:21:22;;;;;;;20.80;2.42;;;;;;;31.81;29.74;100616.31;4998607;28;20050;-81
2023/06/28 10:24:17;;;;;;;10.32;1.85;;;;;;;31.67;30.28;100623.31;4986668;28;20034;-81
2023/06/28 10:27:09;;;;;;;12.70;2.38;;;;;;;31.60;30.21;100629.19;4985662;28;20420;-81
2023/06/28 10:30:05;;;;;;;5.18;1.98;;;;;;;32.85;29.21;100624.81;4984201;28;20049;-81
2023/06/28 10:32:58;;;;;;;19.80;2.50;;;;;;;31.39;31.56;100613.91;4981697;28;20053;-81
2023/06/28 10:35:53;;;;;;;12.60;2.75;;;;;;;29.63;33.96;100610.44;4986210;28;20595;-80
2023/06/28 10:38:52;;;;;;;3.35;1.60;;;;;;;29.97;33.64;100617.41;4987742;28;20050;-81
2023/06/28 10:41:47;;;;;;;3.17;1.60;;;;;;;30.73;32.16;100626.41;4991684;28;20527;-74
2023/06/28 10:44:54;;;;;;;23.45;2.58;;;;;;;34.17;26.71;100622.97;5011098;28;20053;-75
2023/06/28 10:47:58;;;;;;;43.13;4.43;;;;;;;33.56;27.99;100622.31;5010681;28;20045;-77
2023/06/28 10:50:53;;;;;;;9.88;2.25;;;;;;;34.03;26.67;100629.34;5014432;28;20053;-77
2023/06/28 10:53:56;;;;;;;4.53;1.42;;;;;;;32.01;29.47;100627.94;5015108;28;20064;-76
2023/06/28 10:56:52;;;;;;;4.25;1.70;;;;;;;32.55;29.01;100640.59;5015228;28;20048;-76
2023/06/28 10:59:50;;;;;;;10.23;2.45;;;;;;;32.00;28.70;100637.63;4994552;28;20536;-75
2023/06/28 11:03:04;;;;;;;4.82;3.13;;;;;;;31.99;29.08;100646.56;4983292;28;20050;-75
2023/06/28 11:05:59;;;;;;;3.47;2.25;;;;;;;33.01;27.59;100653.44;5003201;28;20693;-75
2023/06/28 11:08:56;;;;;;;2.72;1.30;;;;;;;33.08;26.92;100658.75;4985489;28;20069;-79
2023/06/28 11:11:58;;;;;;;5.80;2.10;;;;;;;30.20;30.75;100650.69;4979078;28;20438;-78
2023/06/28 11:15:07;;;;;;;3.15;1.55;;;;;;;29.54;32.00;100645.97;5007318;28;20547;-78
2023/06/28 11:18:09;;;;;;;12.23;2.40;;;;;;;29.12;32.94;100639.56;5011650;28;20044;-79
2023/06/28 11:21:04;;;;;;;47.38;4.60;;;;;;;29.21;32.73;100645.31;4988839;28;20069;-79
2023/06/28 11:24:01;;;;;;;90.70;7.70;;;;;;;29.22;33.65;100642.06;5000545;28;20046;-78
2023/06/28 11:26:53;;;;;;;16.85;2.35;;;;;;;29.21;33.35;100645.31;5002131;28;20043;-80
2023/06/28 11:30:04;;;;;;;6.28;1.60;;;;;;;29.16;34.38;100649.44;5004531;28;20034;-80
2023/06/28 11:32:56;;;;;;;12.10;1.80;;;;;;;28.95;34.12;100635.28;5000093;28;20527;-84
2023/06/28 11:35:47;;;;;;;40.35;4.10;;;;;;;29.43;33.30;100635.06;4987325;28;20034;-83
2023/06/28 11:38:41;;;;;;;13.98;2.42;;;;;;;29.50;33.71;100634.88;4972505;28;20042;-83
2023/06/28 11:41:35;;;;;;;;;;;;;;;28.89;33.36;100641.41;4983087;28;20047;-82
2023/06/28 11:44:29;;;;;;;53.00;4.22;;;;;;;29.27;33.13;100635.91;4983815;28;19914;-83
2023/06/28 11:47:27;;;;;;;84.82;8.82;;;;;;;29.25;32.65;100640.41;4977385;28;20069;-83
2023/06/28 11:50:22;;;;;;;5.03;1.83;;;;;;;29.12;33.69;100640.34;4985950;28;20061;-82
2023/06/28 11:53:16;;;;;;;4.93;1.67;;;;;;;28.85;33.38;100648.34;4994005;28;20053;-82
2023/06/28 11:56:06;;;;;;;;;;;;;;;28.49;34.71;100649.28;4967776;28;20520;-81
2023/06/28 11:59:00;;;;;;;8.80;1.77;;;;;;;28.61;33.98;100642.16;4987287;28;19913;-83
2023/06/28 12:01:58;;;;;;;;;;;;;;;28.65;35.52;100642.84;4987123;28;20046;-82
2023/06/28 12:05:00;;;;;;;15.18;2.30;;;;;;;28.91;34.41;100627.75;4969910;28;19918;-84
2023/06/28 12:07:58;;;;;;;3.92;1.50;;;;;;;29.05;34.07;100628.59;4986338;28;20100;-81
2023/06/28 12:10:52;;;;;;;3.00;1.90;;;;;;;28.85;34.59;100629.50;4973425;28;20054;-81
2023/06/28 12:13:48;;;;;;;4.75;1.42;;;;;;;28.80;34.95;100641.25;5011225;28;20049;-81
2023/06/28 12:16:40;;;;;;;5.28;1.83;;;;;;;29.13;34.87;100632.75;5003292;28;20516;-82
2023/06/28 12:19:36;;;;;;;3.88;1.75;;;;;;;29.06;34.03;100635.75;5000571;28;20049;-81
2023/06/28 12:22:28;;;;;;;5.32;1.50;;;;;;;28.82;33.76;100633.22;4985279;28;20049;-81
2023/06/28 12:25:27;;;;;;;5.45;2.08;;;;;;;28.64;34.88;100641.28;4981207;28;20057;-82
2023/06/28 12:28:18;;;;;;;4.82;1.48;;;;;;;28.64;34.95;100635.69;4991688;28;20064;-81
2023/06/28 12:31:13;;;;;;;6.07;2.13;;;;;;;28.60;35.35;100637.00;4999914;28;20069;-81
2023/06/28 12:34:08;;;;;;;11.10;2.97;;;;;;;28.34;36.54;100638.88;4987171;28;20045;-81
2023/06/28 12:37:03;;;;;;;;;;;;;;;27.88;36.90;100628.81;5004820;28;20058;-83
2023/06/28 12:40:05;;;;;;;5.15;2.03;;;;;;;28.30;36.84;100626.97;5001156;28;19913;-82
2023/06/28 12:43:14;;;;;;;5.95;2.15;;;;;;;28.61;36.34;100633.75;4986772;28;20045;-80
2023/06/28 12:46:09;;;;;;;3.35;2.13;;;;;;;28.21;37.30;100622.00;5000591;28;20057;-82
2023/06/28 12:49:04;;;;;;;;;;;;;;;28.04;37.59;100637.97;5004248;28;20057;-81
2023/06/28 12:51:56;;;;;;;3.17;1.75;;;;;;;28.04;38.18;100626.00;4986983;28;19914;-80
2023/06/28 12:54:48;;;;;;;6.85;2.70;;;;;;;28.19;37.66;100632.84;4984293;28;20057;-81
2023/06/28 12:57:43;;;;;;;8.32;1.90;;;;;;;28.25;37.84;100628.28;4988891;28;20054;-81
2023/06/28 13:00:35;;;;;;;4.80;1.75;;;;;;;28.43;37.53;100639.03;5000158;28;20053;-81
2023/06/28 13:03:25;;;;;;;5.22;1.73;;;;;;;28.15;37.95;100632.16;4984857;28;20453;-81
2023/06/28 13:06:21;;;;;;;41.55;5.28;;;;;;;28.24;37.69;100635.09;4994030;28;20050;-81
2023/06/28 13:09:15;;;;;;;1.77;1.50;;;;;;;27.99;37.70;100626.53;4962960;28;20045;-81
2023/06/28 13:12:11;;;;;;;3.45;1.80;;;;;;;28.25;37.84;100633.09;4993039;28;20054;-81
2023/06/28 13:15:03;;;;;;;5.50;1.70;;;;;;;28.21;37.66;100635.22;4987856;28;20061;-81
2023/06/28 13:17:55;;;;;;;;;;;;;;;28.20;37.76;100639.22;4976761;28;20798;-81
2023/06/28 13:20:47;;;;;;;2.25;1.48;;;;;;;28.19;37.25;100634.88;4988415;28;19914;-82
2023/06/28 13:23:41;;;;;;;3.05;1.63;;;;;;;28.35;38.22;100646.81;4991004;28;20065;-82
2023/06/28 13:26:33;;;;;;;;;;;;;;;27.88;38.00;100643.56;4996895;28;20046;-80
2023/06/28 13:29:28;;;;;;;5.93;1.73;;;;;;;28.21;37.37;100644.38;5000457;28;19913;-82
2023/06/28 13:32:23;;;;;;;4.47;1.98;;;;;;;28.12;37.50;100649.03;4986759;28;20041;-81
2023/06/28 13:35:18;;;;;;;12.15;2.13;;;;;;;28.09;37.94;100645.03;4986920;28;20114;-82